Aviation Digital Data Service (ADDS)

Output produced by METARs form (1018 UTC 29 January 2015)
found at http://aviationweather.gov/adds/metars/
 
KLCH 290953Z AUTO 16003KT 1/4SM FG VV002 11/11 A3017 RMK AO2 SLP224 T01110111